Hauptseite
METAR-TAF:

METAR-TAF

Flughäfen :

Flughafen Nador

Nador, Marokko

Breite: 34-59-20N, Länge: 003-01-42W, Höhe: 175 m

Beobachtung

Neuester Wetterbericht von vor 10 Minuten, um 15:00 UTC
Wind 15 kt aus West/Nordwest, variierte zwischen West und Nord/Nordwest
Temperatur 24°C
Luftfeuchtigkeit 19%
Luftdruck 1020 hPa
Sichtweite 10 km oder mehr
keine Wolken unter 1500 m und keine Kumulonimbus oder Gewitterwolken

METAR: GMMW 251500Z 29015KT 260V330 CAVOK 24/M01 Q1020 NOSIG

Zeit: 16:10 (15:10 UTC)

Prognose

Neuester Wetterbericht von vor 4 Stunden und 10 Minuten, um 11:00 UTC
Gültige Prognose vom 25 um 12 UTC bis 26 um 18 UTC
Wind 11 kt aus West
Sichtweite 10 km oder mehr
keine Wolken unter 1500 m und keine Kumulonimbus oder Gewitterwolken

TAF: GMMW 251100Z 2512/2618 28011KT CAVOK

Wetterbeobachtungen und Prognosen von mehr als 4000 Flughäfen (METAR und TAF Bericht).

Die verfügbaren Stationen werden durch gelbe und rote Markierungen auf der Karte dargestellt.

Führen Sie die Maus auf sie, um den Namen der Station zu sehen.

Darauf klicken, um die Beobachtung von Wetterbeobachtungen und Prognosen zu sehen.

Um die Karte zu ändern : klicken Sie auf den grünen Tasten mit einem schwarzen Kreuz Zum Vergrößern, auf den grünen Button mit einem Gedankenstrich zu verkleinern, oder auf die grünen Pfeile für benachbarte Karten.


METAR-TAF: